Terminal Aerodrome Forecast
Issued by NWS Jackson, KY

Home | Current Version | Previous Version | Text Only | Print | Product List | Glossary On
Versions: 1 2 3 4 5 6 7 8 9 10 11 12 13 14
000
FTUS43 KJKL 282300
TAFJKL
TAF
KJKL 282332Z 2900/2924 VRB03KT 5SM -RA BR OVC004
     FM290500 VRB03KT 1SM -RA BR OVC003
     FM291400 VRB03KT 5SM BR OVC010
     FM291800 VRB03KT P6SM OVC015=

USA.gov is the U.S. government's official web portal to all federal, state and local government web resources and services.